sensor_id;sensor_type;location;lat;lon;timestamp;pressure;altitude;pressure_sealevel;temperature;humidity
66880;BME280;53789;51.392;10.234;2022-07-06T00:00:05;98889.38;;;24.09;39.11
66880;BME280;53789;51.392;10.234;2022-07-06T00:01:06;98878.53;;;24.08;39.35
66880;BME280;53789;51.392;10.234;2022-07-06T00:02:06;98880.50;;;24.07;39.47
66880;BME280;53789;51.392;10.234;2022-07-06T00:03:07;98884.53;;;24.06;39.58
66880;BME280;53789;51.392;10.234;2022-07-06T00:04:07;98883.31;;;24.07;39.44
66880;BME280;53789;51.392;10.234;2022-07-06T00:05:08;98886.13;;;24.07;38.99
66880;BME280;53789;51.392;10.234;2022-07-06T00:06:08;98885.31;;;24.07;39.36
66880;BME280;53789;51.392;10.234;2022-07-06T00:07:09;98890.13;;;24.06;39.20
66880;BME280;53789;51.392;10.234;2022-07-06T00:08:09;98892.13;;;24.06;39.36
66880;BME280;53789;51.392;10.234;2022-07-06T00:09:10;98894.13;;;24.05;39.31
66880;BME280;53789;51.392;10.234;2022-07-06T00:10:10;98891.31;;;24.05;39.63
66880;BME280;53789;51.392;10.234;2022-07-06T00:11:11;98895.75;;;24.06;39.59
66880;BME280;53789;51.392;10.234;2022-07-06T00:12:11;98890.50;;;24.05;39.13
66880;BME280;53789;51.392;10.234;2022-07-06T00:13:12;98893.31;;;24.05;39.83
66880;BME280;53789;51.392;10.234;2022-07-06T00:14:12;98889.31;;;24.06;39.86
66880;BME280;53789;51.392;10.234;2022-07-06T00:15:13;98892.13;;;24.06;39.03
66880;BME280;53789;51.392;10.234;2022-07-06T00:16:13;98888.50;;;24.05;39.09
66880;BME280;53789;51.392;10.234;2022-07-06T00:17:14;98895.28;;;24.04;39.31
66880;BME280;53789;51.392;10.234;2022-07-06T00:18:15;98890.50;;;24.05;40.05
66880;BME280;53789;51.392;10.234;2022-07-06T00:19:15;98891.69;;;24.03;39.73
66880;BME280;53789;51.392;10.234;2022-07-06T00:20:16;98886.88;;;24.04;39.27
66880;BME280;53789;51.392;10.234;2022-07-06T00:21:17;98888.88;;;24.03;39.37
66880;BME280;53789;51.392;10.234;2022-07-06T00:22:17;98888.88;;;24.03;39.60
66880;BME280;53789;51.392;10.234;2022-07-06T00:23:19;98886.88;;;24.04;39.68
66880;BME280;53789;51.392;10.234;2022-07-06T00:24:19;98884.44;;;24.02;39.70
66880;BME280;53789;51.392;10.234;2022-07-06T00:25:20;98890.88;;;24.03;39.52
66880;BME280;53789;51.392;10.234;2022-07-06T00:26:20;98883.66;;;24.02;39.38
66880;BME280;53789;51.392;10.234;2022-07-06T00:27:21;98889.25;;;24.02;40.13
66880;BME280;53789;51.392;10.234;2022-07-06T00:28:21;98885.66;;;24.01;39.91
66880;BME280;53789;51.392;10.234;2022-07-06T00:29:22;98891.25;;;24.01;39.77
66880;BME280;53789;51.392;10.234;2022-07-06T00:30:23;98881.22;;;24.00;39.75
66880;BME280;53789;51.392;10.234;2022-07-06T00:31:23;98877.63;;;24.00;39.38
66880;BME280;53789;51.392;10.234;2022-07-06T00:32:24;98881.22;;;24.00;39.77
66880;BME280;53789;51.392;10.234;2022-07-06T00:33:24;98885.19;;;23.99;39.80
66880;BME280;53789;51.392;10.234;2022-07-06T00:34:25;98881.59;;;23.99;39.32
66880;BME280;53789;51.392;10.234;2022-07-06T00:35:26;98882.78;;;23.98;39.51
66880;BME280;53789;51.392;10.234;2022-07-06T00:36:26;98886.41;;;23.98;39.93
66880;BME280;53789;51.392;10.234;2022-07-06T00:37:27;98880.78;;;23.98;39.83
66880;BME280;53789;51.392;10.234;2022-07-06T00:38:27;98893.19;;;23.97;39.70
66880;BME280;53789;51.392;10.234;2022-07-06T00:39:28;98896.00;;;23.97;39.27
66880;BME280;53789;51.392;10.234;2022-07-06T00:40:28;98894.00;;;23.98;39.65
66880;BME280;53789;51.392;10.234;2022-07-06T00:41:29;98887.59;;;23.97;39.86
66880;BME280;53789;51.392;10.234;2022-07-06T00:42:29;98879.53;;;23.96;39.72
66880;BME280;53789;51.392;10.234;2022-07-06T00:43:52;98890.75;;;23.96;39.77
66880;BME280;53789;51.392;10.234;2022-07-06T00:44:53;98892.75;;;23.95;39.45
66880;BME280;53789;51.392;10.234;2022-07-06T00:45:53;98891.13;;;23.94;39.80
66880;BME280;53789;51.392;10.234;2022-07-06T00:46:54;98886.69;;;23.93;39.53
66880;BME280;53789;51.392;10.234;2022-07-06T00:47:54;98880.28;;;23.93;39.23
66880;BME280;53789;51.392;10.234;2022-07-06T00:48:55;98889.50;;;23.93;39.31
66880;BME280;53789;51.392;10.234;2022-07-06T00:49:56;98894.31;;;23.93;39.99
66880;BME280;53789;51.392;10.234;2022-07-06T00:50:57;98882.28;;;23.92;39.78
66880;BME280;53789;51.392;10.234;2022-07-06T00:51:57;98889.09;;;23.91;39.14
66880;BME280;53789;51.392;10.234;2022-07-06T00:53:04;98879.84;;;23.91;39.52
66880;BME280;53789;51.392;10.234;2022-07-06T00:54:05;98882.66;;;23.91;39.76
66880;BME280;53789;51.392;10.234;2022-07-06T00:55:07;98877.88;;;23.91;39.54
66880;BME280;53789;51.392;10.234;2022-07-06T00:56:10;98881.03;;;23.90;39.42
66880;BME280;53789;51.392;10.234;2022-07-06T00:57:10;98885.81;;;23.89;40.08
66880;BME280;53789;51.392;10.234;2022-07-06T00:58:11;98887.44;;;23.90;39.80
66880;BME280;53789;51.392;10.234;2022-07-06T00:59:11;98884.66;;;23.90;39.52
66880;BME280;53789;51.392;10.234;2022-07-06T01:00:14;98890.63;;;23.89;39.52
66880;BME280;53789;51.392;10.234;2022-07-06T01:01:15;98889.47;;;23.90;39.84
66880;BME280;53789;51.392;10.234;2022-07-06T01:02:15;98885.81;;;23.89;39.51
66880;BME280;53789;51.392;10.234;2022-07-06T01:03:16;98881.41;;;23.88;39.96
66880;BME280;53789;51.392;10.234;2022-07-06T01:04:16;98881.41;;;23.88;40.00
66880;BME280;53789;51.392;10.234;2022-07-06T01:05:18;98884.59;;;23.87;39.60
66880;BME280;53789;51.392;10.234;2022-07-06T01:06:19;98882.97;;;23.85;39.72
66880;BME280;53789;51.392;10.234;2022-07-06T01:07:19;98884.94;;;23.85;39.74
66880;BME280;53789;51.392;10.234;2022-07-06T01:08:20;98882.13;;;23.85;39.70
66880;BME280;53789;51.392;10.234;2022-07-06T01:09:20;98884.13;;;23.84;39.91
66880;BME280;53789;51.392;10.234;2022-07-06T01:10:22;98878.88;;;23.83;39.59
66880;BME280;53789;51.392;10.234;2022-07-06T01:11:23;98881.69;;;23.83;39.46
66880;BME280;53789;51.392;10.234;2022-07-06T01:12:24;98887.28;;;23.83;40.03
66880;BME280;53789;51.392;10.234;2022-07-06T01:13:25;98878.47;;;23.81;39.79
66880;BME280;53789;51.392;10.234;2022-07-06T01:14:27;98877.63;;;23.80;39.44
66880;BME280;53789;51.392;10.234;2022-07-06T01:15:27;98884.06;;;23.81;39.68
66880;BME280;53789;51.392;10.234;2022-07-06T01:16:28;98881.25;;;23.81;39.80
66880;BME280;53789;51.392;10.234;2022-07-06T01:17:30;98882.44;;;23.80;39.42
66880;BME280;53789;51.392;10.234;2022-07-06T01:18:32;98888.41;;;23.78;39.83
66880;BME280;53789;51.392;10.234;2022-07-06T01:19:32;98879.56;;;23.76;39.85
66880;BME280;53789;51.392;10.234;2022-07-06T01:20:33;98886.00;;;23.77;39.79
66880;BME280;53789;51.392;10.234;2022-07-06T01:21:33;98883.19;;;23.77;39.59
66880;BME280;53789;51.392;10.234;2022-07-06T01:22:34;98880.75;;;23.75;39.98
66880;BME280;53789;51.392;10.234;2022-07-06T01:23:39;98884.34;;;23.76;39.86
66880;BME280;53789;51.392;10.234;2022-07-06T01:24:39;98873.50;;;23.74;40.07
66880;BME280;53789;51.392;10.234;2022-07-06T01:25:40;98877.94;;;23.75;40.06
66880;BME280;53789;51.392;10.234;2022-07-06T01:26:41;98872.34;;;23.75;40.18
66880;BME280;53789;51.392;10.234;2022-07-06T01:27:42;98871.53;;;23.75;39.74
66880;BME280;53789;51.392;10.234;2022-07-06T01:28:43;98868.75;;;23.75;39.65
66880;BME280;53789;51.392;10.234;2022-07-06T01:29:43;98868.75;;;23.75;39.79
66880;BME280;53789;51.392;10.234;2022-07-06T01:30:44;98870.72;;;23.74;39.63
66880;BME280;53789;51.392;10.234;2022-07-06T01:31:49;98878.31;;;23.74;39.96
66880;BME280;53789;51.392;10.234;2022-07-06T01:32:51;98868.28;;;23.73;39.44
66880;BME280;53789;51.392;10.234;2022-07-06T01:33:56;98869.50;;;23.72;39.33
66880;BME280;53789;51.392;10.234;2022-07-06T01:34:56;98870.28;;;23.72;40.10
66880;BME280;53789;51.392;10.234;2022-07-06T01:35:58;98868.66;;;23.71;39.76
66880;BME280;53789;51.392;10.234;2022-07-06T01:36:58;98864.22;;;23.70;39.61
66880;BME280;53789;51.392;10.234;2022-07-06T01:37:59;98865.06;;;23.71;39.77
66880;BME280;53789;51.392;10.234;2022-07-06T01:38:59;98860.63;;;23.70;39.73
66880;BME280;53789;51.392;10.234;2022-07-06T01:40:01;98865.44;;;23.69;40.16
66880;BME280;53789;51.392;10.234;2022-07-06T01:41:05;98859.81;;;23.69;40.28
66880;BME280;53789;51.392;10.234;2022-07-06T01:42:05;98860.63;;;23.70;39.88
66880;BME280;53789;51.392;10.234;2022-07-06T01:43:06;98863.78;;;23.68;40.34
66880;BME280;53789;51.392;10.234;2022-07-06T01:44:07;98867.41;;;23.68;40.47
66880;BME280;53789;51.392;10.234;2022-07-06T01:45:09;98872.22;;;23.68;40.17
66880;BME280;53789;51.392;10.234;2022-07-06T01:46:10;98879.00;;;23.67;39.94
66880;BME280;53789;51.392;10.234;2022-07-06T01:47:11;98879.81;;;23.67;39.82
66880;BME280;53789;51.392;10.234;2022-07-06T01:48:11;98882.63;;;23.67;40.29
66880;BME280;53789;51.392;10.234;2022-07-06T01:49:12;98876.19;;;23.67;40.07
66880;BME280;53789;51.392;10.234;2022-07-06T01:50:12;98881.00;;;23.66;39.74
66880;BME280;53789;51.392;10.234;2022-07-06T01:51:13;98880.56;;;23.64;39.91
66880;BME280;53789;51.392;10.234;2022-07-06T01:52:14;98881.38;;;23.65;40.02
66880;BME280;53789;51.392;10.234;2022-07-06T01:53:14;98874.13;;;23.64;40.21
66880;BME280;53789;51.392;10.234;2022-07-06T01:54:15;98876.94;;;23.64;40.82
66880;BME280;53789;51.392;10.234;2022-07-06T01:55:15;98889.78;;;23.65;40.65
66880;BME280;53789;51.392;10.234;2022-07-06T01:56:17;98877.75;;;23.64;41.39
66880;BME280;53789;51.392;10.234;2022-07-06T01:57:18;98875.34;;;23.63;41.50
66880;BME280;53789;51.392;10.234;2022-07-06T01:58:18;98875.34;;;23.63;41.54
66880;BME280;53789;51.392;10.234;2022-07-06T01:59:19;98876.94;;;23.64;42.02
66880;BME280;53789;51.392;10.234;2022-07-06T02:00:19;98873.34;;;23.63;41.93
66880;BME280;53789;51.392;10.234;2022-07-06T02:01:20;98870.53;;;23.63;41.74
66880;BME280;53789;51.392;10.234;2022-07-06T02:02:20;98871.69;;;23.62;41.43
66880;BME280;53789;51.392;10.234;2022-07-06T02:03:21;98875.34;;;23.63;41.45
66880;BME280;53789;51.392;10.234;2022-07-06T02:04:22;98870.91;;;23.62;40.84
66880;BME280;53789;51.392;10.234;2022-07-06T02:05:23;98872.91;;;23.61;41.13
66880;BME280;53789;51.392;10.234;2022-07-06T02:06:23;98877.69;;;23.61;40.41
66880;BME280;53789;51.392;10.234;2022-07-06T02:07:24;98870.47;;;23.60;40.53
66880;BME280;53789;51.392;10.234;2022-07-06T02:08:24;98878.88;;;23.60;40.23
66880;BME280;53789;51.392;10.234;2022-07-06T02:09:25;98876.44;;;23.58;40.51
66880;BME280;53789;51.392;10.234;2022-07-06T02:10:25;98880.44;;;23.57;40.42
66880;BME280;53789;51.392;10.234;2022-07-06T02:11:26;98876.00;;;23.56;40.30
66880;BME280;53789;51.392;10.234;2022-07-06T02:12:26;98878.00;;;23.56;39.86
66880;BME280;53789;51.392;10.234;2022-07-06T02:13:27;98882.78;;;23.55;40.42
66880;BME280;53789;51.392;10.234;2022-07-06T02:14:27;98868.75;;;23.55;39.84
66880;BME280;53789;51.392;10.234;2022-07-06T02:15:28;98878.38;;;23.54;40.23
66880;BME280;53789;51.392;10.234;2022-07-06T02:16:28;98875.94;;;23.53;40.44
66880;BME280;53789;51.392;10.234;2022-07-06T02:17:29;98881.56;;;23.53;40.26
66880;BME280;53789;51.392;10.234;2022-07-06T02:18:30;98871.50;;;23.52;39.84
66880;BME280;53789;51.392;10.234;2022-07-06T02:19:30;98879.13;;;23.51;40.21
66880;BME280;53789;51.392;10.234;2022-07-06T02:20:30;98872.69;;;23.50;40.08
66880;BME280;53789;51.392;10.234;2022-07-06T02:21:31;98882.28;;;23.49;40.23
66880;BME280;53789;51.392;10.234;2022-07-06T02:22:32;98885.09;;;23.49;39.96
66880;BME280;53789;51.392;10.234;2022-07-06T02:23:32;98887.91;;;23.49;39.88
66880;BME280;53789;51.392;10.234;2022-07-06T02:24:33;98889.06;;;23.48;40.03
66880;BME280;53789;51.392;10.234;2022-07-06T02:25:33;98885.47;;;23.48;41.00
66880;BME280;53789;51.392;10.234;2022-07-06T02:26:34;98880.66;;;23.48;40.82
66880;BME280;53789;51.392;10.234;2022-07-06T02:27:34;98892.66;;;23.49;41.05
66880;BME280;53789;51.392;10.234;2022-07-06T02:28:35;98889.06;;;23.48;40.87
66880;BME280;53789;51.392;10.234;2022-07-06T02:29:35;98891.06;;;23.48;40.67
66880;BME280;53789;51.392;10.234;2022-07-06T02:30:36;98885.47;;;23.48;41.08
66880;BME280;53789;51.392;10.234;2022-07-06T02:31:37;98892.66;;;23.49;40.70
66880;BME280;53789;51.392;10.234;2022-07-06T02:32:37;98889.88;;;23.49;40.68
66880;BME280;53789;51.392;10.234;2022-07-06T02:33:38;98897.47;;;23.48;40.63
66880;BME280;53789;51.392;10.234;2022-07-06T02:34:38;98893.88;;;23.48;40.61
66880;BME280;53789;51.392;10.234;2022-07-06T02:35:39;98893.88;;;23.48;40.55
66880;BME280;53789;51.392;10.234;2022-07-06T02:36:39;98891.06;;;23.48;40.69
66880;BME280;53789;51.392;10.234;2022-07-06T02:37:40;98903.09;;;23.48;40.41
66880;BME280;53789;51.392;10.234;2022-07-06T02:38:40;98900.66;;;23.47;40.62
66880;BME280;53789;51.392;10.234;2022-07-06T02:39:41;98897.84;;;23.47;40.33
66880;BME280;53789;51.392;10.234;2022-07-06T02:40:41;98889.44;;;23.47;40.85
66880;BME280;53789;51.392;10.234;2022-07-06T02:41:42;98894.22;;;23.46;40.73
66880;BME280;53789;51.392;10.234;2022-07-06T02:42:43;98890.63;;;23.46;40.57
66880;BME280;53789;51.392;10.234;2022-07-06T02:43:43;98895.03;;;23.47;40.62
66880;BME280;53789;51.392;10.234;2022-07-06T02:44:44;98897.84;;;23.47;40.31
66880;BME280;53789;51.392;10.234;2022-07-06T02:45:44;98888.63;;;23.46;40.40
66880;BME280;53789;51.392;10.234;2022-07-06T02:46:45;98892.63;;;23.45;39.97
66880;BME280;53789;51.392;10.234;2022-07-06T02:47:45;98893.41;;;23.46;40.02
66880;BME280;53789;51.392;10.234;2022-07-06T02:48:46;98886.19;;;23.45;40.03
66880;BME280;53789;51.392;10.234;2022-07-06T02:49:46;98876.19;;;23.44;40.22
66880;BME280;53789;51.392;10.234;2022-07-06T02:50:47;98880.16;;;23.43;39.91
66880;BME280;53789;51.392;10.234;2022-07-06T02:51:48;98875.72;;;23.42;40.30
66880;BME280;53789;51.392;10.234;2022-07-06T02:52:48;98880.53;;;23.41;40.16
66880;BME280;53789;51.392;10.234;2022-07-06T02:53:49;98872.13;;;23.41;40.00
66880;BME280;53789;51.392;10.234;2022-07-06T02:54:50;98876.91;;;23.41;40.03
66880;BME280;53789;51.392;10.234;2022-07-06T02:55:50;98871.31;;;23.41;39.82
66880;BME280;53789;51.392;10.234;2022-07-06T02:56:51;98880.91;;;23.40;40.33
66880;BME280;53789;51.392;10.234;2022-07-06T02:57:51;98876.47;;;23.39;40.05
66880;BME280;53789;51.392;10.234;2022-07-06T02:58:52;98872.06;;;23.38;40.30
66880;BME280;53789;51.392;10.234;2022-07-06T02:59:52;98890.47;;;23.39;39.91
66880;BME280;53789;51.392;10.234;2022-07-06T03:00:53;98879.63;;;23.37;40.02
66880;BME280;53789;51.392;10.234;2022-07-06T03:01:53;98881.63;;;23.37;40.10
66880;BME280;53789;51.392;10.234;2022-07-06T03:02:54;98887.25;;;23.37;40.05
66880;BME280;53789;51.392;10.234;2022-07-06T03:03:54;98884.44;;;23.37;39.85
66880;BME280;53789;51.392;10.234;2022-07-06T03:04:55;98885.59;;;23.36;39.91
66880;BME280;53789;51.392;10.234;2022-07-06T03:05:56;98887.63;;;23.35;39.69
66880;BME280;53789;51.392;10.234;2022-07-06T03:06:56;98891.59;;;23.34;39.96
66880;BME280;53789;51.392;10.234;2022-07-06T03:07:57;98894.38;;;23.34;39.85
66880;BME280;53789;51.392;10.234;2022-07-06T03:08:57;98899.19;;;23.33;39.87
66880;BME280;53789;51.392;10.234;2022-07-06T03:09:58;98892.75;;;23.33;40.25
66880;BME280;53789;51.392;10.234;2022-07-06T03:10:58;98900.38;;;23.32;39.87
66880;BME280;53789;51.392;10.234;2022-07-06T03:11:59;98908.78;;;23.32;40.29
66880;BME280;53789;51.392;10.234;2022-07-06T03:13:00;98899.09;;;23.30;40.15
66880;BME280;53789;51.392;10.234;2022-07-06T03:14:00;98902.72;;;23.30;40.15
66880;BME280;53789;51.392;10.234;2022-07-06T03:15:01;98900.31;;;23.29;39.69
66880;BME280;53789;51.392;10.234;2022-07-06T03:16:01;98902.28;;;23.28;39.99
66880;BME280;53789;51.392;10.234;2022-07-06T03:17:02;98901.47;;;23.28;39.65
66880;BME280;53789;51.392;10.234;2022-07-06T03:18:02;98910.25;;;23.26;39.95
66880;BME280;53789;51.392;10.234;2022-07-06T03:19:03;98904.66;;;23.26;39.71
66880;BME280;53789;51.392;10.234;2022-07-06T03:20:04;98906.66;;;23.26;39.49
66880;BME280;53789;51.392;10.234;2022-07-06T03:21:05;98912.63;;;23.24;39.39
66880;BME280;53789;51.392;10.234;2022-07-06T03:22:06;98911.00;;;23.23;39.69
66880;BME280;53789;51.392;10.234;2022-07-06T03:23:06;98905.38;;;23.23;39.25
66880;BME280;53789;51.392;10.234;2022-07-06T03:24:07;98912.97;;;23.23;39.61
66880;BME280;53789;51.392;10.234;2022-07-06T03:25:08;98907.72;;;23.21;39.59
66880;BME280;53789;51.392;10.234;2022-07-06T03:26:08;98916.50;;;23.20;39.51
66880;BME280;53789;51.392;10.234;2022-07-06T03:27:09;98914.91;;;23.19;39.27
66880;BME280;53789;51.392;10.234;2022-07-06T03:28:09;98908.47;;;23.18;39.38
66880;BME280;53789;51.392;10.234;2022-07-06T03:29:10;98912.09;;;23.19;38.89
66880;BME280;53789;51.392;10.234;2022-07-06T03:30:10;98912.47;;;23.17;39.15
66880;BME280;53789;51.392;10.234;2022-07-06T03:31:11;98918.06;;;23.17;39.50
66880;BME280;53789;51.392;10.234;2022-07-06T03:32:12;98917.25;;;23.17;39.33
66880;BME280;53789;51.392;10.234;2022-07-06T03:33:12;98917.25;;;23.17;39.16
66880;BME280;53789;51.392;10.234;2022-07-06T03:34:13;98915.28;;;23.17;39.43
66880;BME280;53789;51.392;10.234;2022-07-06T03:35:13;98917.25;;;23.17;39.75
66880;BME280;53789;51.392;10.234;2022-07-06T03:36:14;98913.63;;;23.16;39.49
66880;BME280;53789;51.392;10.234;2022-07-06T03:37:14;98918.06;;;23.17;39.61
66880;BME280;53789;51.392;10.234;2022-07-06T03:38:15;98920.03;;;23.17;39.92
66880;BME280;53789;51.392;10.234;2022-07-06T03:39:15;98920.41;;;23.15;39.72
66880;BME280;53789;51.392;10.234;2022-07-06T03:40:16;98920.88;;;23.17;39.89
66880;BME280;53789;51.392;10.234;2022-07-06T03:41:16;98926.47;;;23.17;39.79
66880;BME280;53789;51.392;10.234;2022-07-06T03:42:17;98923.69;;;23.17;39.69
66880;BME280;53789;51.392;10.234;2022-07-06T03:43:17;98913.63;;;23.16;39.96
66880;BME280;53789;51.392;10.234;2022-07-06T03:44:18;98922.03;;;23.16;39.99
66880;BME280;53789;51.392;10.234;2022-07-06T03:45:18;98917.59;;;23.15;39.92
66880;BME280;53789;51.392;10.234;2022-07-06T03:46:19;98922.41;;;23.14;39.78
66880;BME280;53789;51.392;10.234;2022-07-06T03:47:19;98919.59;;;23.14;40.09
66880;BME280;53789;51.392;10.234;2022-07-06T03:48:20;98916.00;;;23.14;39.88
66880;BME280;53789;51.392;10.234;2022-07-06T03:49:21;98916.00;;;23.14;39.84
66880;BME280;53789;51.392;10.234;2022-07-06T03:50:21;98910.41;;;23.14;40.04
66880;BME280;53789;51.392;10.234;2022-07-06T03:51:22;98912.38;;;23.13;39.76
66880;BME280;53789;51.392;10.234;2022-07-06T03:52:23;98905.97;;;23.13;39.72
66880;BME280;53789;51.392;10.234;2022-07-06T03:53:23;98910.78;;;23.12;39.83
66880;BME280;53789;51.392;10.234;2022-07-06T03:54:24;98909.16;;;23.11;39.98
66880;BME280;53789;51.392;10.234;2022-07-06T03:55:24;98909.94;;;23.12;40.26
66880;BME280;53789;51.392;10.234;2022-07-06T03:56:25;98909.16;;;23.11;39.94
66880;BME280;53789;51.392;10.234;2022-07-06T03:57:25;98914.75;;;23.11;39.89
66880;BME280;53789;51.392;10.234;2022-07-06T03:58:26;98907.50;;;23.10;39.83
66880;BME280;53789;51.392;10.234;2022-07-06T03:59:26;98903.91;;;23.10;39.90
66880;BME280;53789;51.392;10.234;2022-07-06T04:00:27;98914.75;;;23.11;39.66
66880;BME280;53789;51.392;10.234;2022-07-06T04:01:28;98913.91;;;23.11;39.69
66880;BME280;53789;51.392;10.234;2022-07-06T04:02:29;98915.13;;;23.10;40.21
66880;BME280;53789;51.392;10.234;2022-07-06T04:03:29;98906.72;;;23.10;40.68
66880;BME280;53789;51.392;10.234;2022-07-06T04:04:30;98915.91;;;23.10;40.11
66880;BME280;53789;51.392;10.234;2022-07-06T04:05:30;98912.31;;;23.10;40.77
66880;BME280;53789;51.392;10.234;2022-07-06T04:06:31;98915.91;;;23.10;41.14
66880;BME280;53789;51.392;10.234;2022-07-06T04:07:31;98912.31;;;23.10;40.34
66880;BME280;53789;51.392;10.234;2022-07-06T04:08:32;98911.81;;;23.08;40.99
66880;BME280;53789;51.392;10.234;2022-07-06T04:09:33;98913.38;;;23.05;41.29
66880;BME280;53789;51.392;10.234;2022-07-06T04:10:33;98917.72;;;23.03;40.85
66880;BME280;53789;51.392;10.234;2022-07-06T04:11:33;98916.47;;;23.00;41.35
66880;BME280;53789;51.392;10.234;2022-07-06T04:12:42;98920.81;;;22.97;41.39
66880;BME280;53789;51.392;10.234;2022-07-06T04:13:43;98919.94;;;22.93;41.21
66880;BME280;53789;51.392;10.234;2022-07-06T04:14:44;98924.28;;;22.91;41.24
66880;BME280;53789;51.392;10.234;2022-07-06T04:15:45;98919.41;;;22.88;41.80
66880;BME280;53789;51.392;10.234;2022-07-06T04:16:45;98918.16;;;22.85;41.32
66880;BME280;53789;51.392;10.234;2022-07-06T04:17:45;98922.47;;;22.83;41.71
66880;BME280;53789;51.392;10.234;2022-07-06T04:18:46;98916.81;;;22.79;41.44
66880;BME280;53789;51.392;10.234;2022-07-06T04:19:46;98917.19;;;22.77;41.75
66880;BME280;53789;51.392;10.234;2022-07-06T04:20:47;98921.16;;;22.76;41.50
66880;BME280;53789;51.392;10.234;2022-07-06T04:21:47;98920.34;;;22.76;41.85
66880;BME280;53789;51.392;10.234;2022-07-06T04:22:49;98926.75;;;22.76;41.84
66880;BME280;53789;51.392;10.234;2022-07-06T04:23:50;98922.78;;;22.77;41.41
66880;BME280;53789;51.392;10.234;2022-07-06T04:24:50;98920.41;;;22.79;42.04
66880;BME280;53789;51.392;10.234;2022-07-06T04:25:51;98925.66;;;22.81;41.66
66880;BME280;53789;51.392;10.234;2022-07-06T04:26:51;98926.09;;;22.83;41.71
66880;BME280;53789;51.392;10.234;2022-07-06T04:27:52;98923.31;;;22.83;41.80
66880;BME280;53789;51.392;10.234;2022-07-06T04:28:52;98928.53;;;22.85;41.47
66880;BME280;53789;51.392;10.234;2022-07-06T04:29:53;98925.38;;;22.86;41.39
66880;BME280;53789;51.392;10.234;2022-07-06T04:30:54;98921.38;;;22.87;41.42
66880;BME280;53789;51.392;10.234;2022-07-06T04:31:54;98924.53;;;22.86;41.38
66880;BME280;53789;51.392;10.234;2022-07-06T04:32:55;98923.75;;;22.85;41.71
66880;BME280;53789;51.392;10.234;2022-07-06T04:33:55;98921.75;;;22.86;41.75
66880;BME280;53789;51.392;10.234;2022-07-06T04:34:56;98929.34;;;22.85;41.61
66880;BME280;53789;51.392;10.234;2022-07-06T04:35:56;98927.72;;;22.84;41.75
66880;BME280;53789;51.392;10.234;2022-07-06T04:36:57;98931.34;;;22.85;41.52
66880;BME280;53789;51.392;10.234;2022-07-06T04:37:57;98929.34;;;22.85;41.61
66880;BME280;53789;51.392;10.234;2022-07-06T04:38:58;98929.34;;;22.85;41.98
66880;BME280;53789;51.392;10.234;2022-07-06T04:39:58;98928.53;;;22.85;41.53
66880;BME280;53789;51.392;10.234;2022-07-06T04:40:59;98924.91;;;22.84;41.88
66880;BME280;53789;51.392;10.234;2022-07-06T04:41:59;98924.09;;;22.84;41.64
66880;BME280;53789;51.392;10.234;2022-07-06T04:43:00;98931.72;;;22.83;41.93
66880;BME280;53789;51.392;10.234;2022-07-06T04:44:00;98927.28;;;22.82;41.97
66880;BME280;53789;51.392;10.234;2022-07-06T04:45:01;98922.84;;;22.81;41.85
66880;BME280;53789;51.392;10.234;2022-07-06T04:46:01;98930.81;;;22.79;41.71
66880;BME280;53789;51.392;10.234;2022-07-06T04:47:02;98927.63;;;22.80;42.11
66880;BME280;53789;51.392;10.234;2022-07-06T04:48:03;98930.00;;;22.78;42.06
66880;BME280;53789;51.392;10.234;2022-07-06T04:49:03;98934.78;;;22.78;41.80
66880;BME280;53789;51.392;10.234;2022-07-06T04:50:04;98938.78;;;22.77;41.35
66880;BME280;53789;51.392;10.234;2022-07-06T04:51:05;98935.13;;;22.76;41.89
66880;BME280;53789;51.392;10.234;2022-07-06T04:52:06;98936.69;;;22.74;41.85
66880;BME280;53789;51.392;10.234;2022-07-06T04:53:06;98933.06;;;22.73;41.87
66880;BME280;53789;51.392;10.234;2022-07-06T04:54:07;98944.63;;;22.72;41.89
66880;BME280;53789;51.392;10.234;2022-07-06T04:55:08;98940.56;;;22.69;42.27
66880;BME280;53789;51.392;10.234;2022-07-06T04:56:08;98942.56;;;22.69;42.09
66880;BME280;53789;51.392;10.234;2022-07-06T04:57:09;98942.13;;;22.67;42.21
66880;BME280;53789;51.392;10.234;2022-07-06T04:58:09;98944.09;;;22.66;42.02
66880;BME280;53789;51.392;10.234;2022-07-06T04:59:09;98944.09;;;22.66;42.11
66880;BME280;53789;51.392;10.234;2022-07-06T05:00:11;98949.34;;;22.68;42.42
66880;BME280;53789;51.392;10.234;2022-07-06T05:01:11;98941.78;;;22.68;42.97
66880;BME280;53789;51.392;10.234;2022-07-06T05:02:12;98950.59;;;22.70;43.87
66880;BME280;53789;51.392;10.234;2022-07-06T05:03:13;98946.63;;;22.71;44.18
66880;BME280;53789;51.392;10.234;2022-07-06T05:04:13;98948.25;;;22.72;44.62
66880;BME280;53789;51.392;10.234;2022-07-06T05:05:14;98946.28;;;22.73;44.07
66880;BME280;53789;51.392;10.234;2022-07-06T05:06:14;98941.91;;;22.75;43.52
66880;BME280;53789;51.392;10.234;2022-07-06T05:07:15;98948.69;;;22.74;43.69
66880;BME280;53789;51.392;10.234;2022-07-06T05:08:16;98948.25;;;22.72;43.24
66880;BME280;53789;51.392;10.234;2022-07-06T05:09:16;98948.59;;;22.71;43.57
66880;BME280;53789;51.392;10.234;2022-07-06T05:10:17;98943.00;;;22.71;43.35
66880;BME280;53789;51.392;10.234;2022-07-06T05:11:17;98942.19;;;22.70;43.14
66880;BME280;53789;51.392;10.234;2022-07-06T05:12:18;98947.00;;;22.70;43.16
66880;BME280;53789;51.392;10.234;2022-07-06T05:13:18;98944.56;;;22.68;43.10
66880;BME280;53789;51.392;10.234;2022-07-06T05:14:19;98948.53;;;22.67;43.42
66880;BME280;53789;51.392;10.234;2022-07-06T05:15:19;98956.13;;;22.67;43.23
66880;BME280;53789;51.392;10.234;2022-07-06T05:16:21;98948.09;;;22.65;43.19
66880;BME280;53789;51.392;10.234;2022-07-06T05:17:21;98943.66;;;22.64;42.91